map of KMEZ home
KMEZ - Airport
Location
City:  Mena, Arkansas, United States
Name:Mena Intermountain Municipal Airport
ICAO:KMEZ
FAA LID:MEZ

Details
Type:Airport (Airfield)
Use:Public/Civil
Latitude:3432'43"N (34.545389)
Longitude:9412'09"W (-94.202638)
Datum:WGS 1984
Elevation:1079 ft (329 m)
Variation:1.51E (WMM2015 magnetic declination)
-0.11 annual change
Runways:2
Longest:6001 × 100 ft (1829 × 30.5 m), paved

Time
Time Zone:UTC-6 (DST-5)
Local Time:

Weather
METAR:KMEZ 210455Z AUTO 00000KT 10SM CLR 11/07 A3032 RMK AO2

Related Locations
Nearby:
Farthest:YAUG: 10773 mi / 17337 km
Augusta [Augusta Airport], WA, AU

Find:

   beyond  
but within

Other Information
Maps:
NOTAMs:
Links:
Sources:

  
  • flag of United States
  • flag of Arkansas
  

Airport Diagram

Airport diagram for KMEZ

Airport diagram PDF

Sectional Chart

Flight Planning
at skyvector.com

Satellite Image

Google Maps Satellite view

 

Copyright © 2004-2018 Karl L. Swartz. All rights reserved.
The Great Circle Mapper name and logo are trademarks of the Great Circle Mapper.
All other trademarks mentioned herein belong to their respective owners.
Please see credits for attibutions and further copyright information.

  Follow gcmap on Facebook Follow gcmap on Twitter Follow gcmap on Google+ GCmap on LinkedIn

hCard Microformat

Geo Microformat